X  CloseMetar Aviation Weather Data     FYOA Ondangwa

Temperature

35°C Temperature

-1°C Dewpoint

10% Humidity



Wind

10 KM/H

 6 MPH

 3 M/S

 5 KTS



270°
Due West
Current Conditions

Clear Clear
Pressure 1010.92 (hPa) - 29.85 (in)
Visibility 6.2 (mi) - 10 (km)
Airport
Airport-code FYOA

Location Ondangwa 595 (km)

Metar:
FYOA 211700Z 27005KT CAVOK 35/M01 Q1011

Time: 21-11-2019 19:00